Time;durP1;ratioP1;P1;durP2;ratioP2;P2;SDS_P1;SDS_P2;PMS_P1;PMS_P2;Temp;Humidity;BMP_temperature;BMP_pressure;BME280_temperature;BME280_humidity;BME280_pressure;Samples;Min_cycle;Max_cycle;Signal;HPM_P1;HPM_P2
2023/11/25 00:00:51;;;;;;;2.72;0.93;;;8.30;71.20;;;;;;2522664;54;20947;-68
2023/11/25 00:03:22;;;;;;;4.20;1.48;;;8.30;71.10;;;;;;2523451;54;20944;-68
2023/11/25 00:05:49;;;;;;;3.37;1.05;;;8.30;71.70;;;;;;2522167;54;20948;-68
2023/11/25 00:08:16;;;;;;;3.37;1.58;;;8.30;71.10;;;;;;2523159;54;21751;-68
2023/11/25 00:10:42;;;;;;;4.00;1.27;;;8.30;71.10;;;;;;2522096;54;21727;-68
2023/11/25 00:13:11;;;;;;;6.95;3.15;;;8.30;71.10;;;;;;2518288;54;20942;-69
2023/11/25 00:15:38;;;;;;;6.00;1.92;;;8.30;71.10;;;;;;2521537;54;21351;-69
2023/11/25 00:18:06;;;;;;;7.10;2.97;;;8.30;71.20;;;;;;2523000;54;21016;-67
2023/11/25 00:20:35;;;;;;;9.25;3.05;;;8.30;71.20;;;;;;2523274;54;20995;-68
2023/11/25 00:23:03;;;;;;;9.80;3.80;;;8.30;71.20;;;;;;2289346;55;20996;-68
2023/11/25 00:25:32;;;;;;;13.20;5.15;;;8.30;71.20;;;;;;2522803;54;21110;-69
2023/11/25 00:27:59;;;;;;;9.35;3.55;;;8.30;71.20;;;;;;2520950;54;21123;-68
2023/11/25 00:30:26;;;;;;;5.97;2.78;;;8.30;71.30;;;;;;2518632;54;20989;-68
2023/11/25 00:32:55;;;;;;;5.12;1.80;;;8.30;71.30;;;;;;2521234;54;21639;-68
2023/11/25 00:35:30;;;;;;;5.97;1.92;;;8.30;71.20;;;;;;2288446;55;21106;-67
2023/11/25 00:37:57;;;;;;;4.75;1.45;;;8.30;71.10;;;;;;2519549;54;21065;-67
2023/11/25 00:40:25;;;;;;;3.30;1.15;;;8.30;71.10;;;;;;2286373;54;20972;-67
2023/11/25 00:42:52;;;;;;;3.03;1.02;;;8.30;71.10;;;;;;2287728;55;21419;-67
2023/11/25 00:45:25;;;;;;;3.35;1.37;;;8.30;71.10;;;;;;2521539;54;20976;-68
2023/11/25 00:47:51;;;;;;;3.00;1.00;;;8.30;71.10;;;;;;2521979;54;20959;-69
2023/11/25 00:50:19;;;;;;;4.00;1.02;;;8.30;71.10;;;;;;2522755;54;20991;-69
2023/11/25 00:52:45;;;;;;;3.40;1.50;;;8.30;71.20;;;;;;2522729;54;20970;-68
2023/11/25 00:55:12;;;;;;;2.65;0.80;;;8.30;71.20;;;;;;2288543;55;20959;-69
2023/11/25 00:57:41;;;;;;;1.95;0.80;;;8.30;71.10;;;;;;2517829;54;20978;-70
2023/11/25 01:00:15;;;;;;;2.12;0.80;;;8.30;71.20;;;;;;2490825;54;20996;-68
2023/11/25 01:02:43;;;;;;;2.00;0.80;;;8.30;71.10;;;;;;2521259;54;21055;-69
2023/11/25 01:05:10;;;;;;;1.90;0.55;;;8.30;71.10;;;;;;2286143;55;22210;-69
2023/11/25 01:07:37;;;;;;;2.17;0.70;;;8.30;71.00;;;;;;2285871;55;21488;-69
2023/11/25 01:10:05;;;;;;;4.43;0.80;;;8.30;71.10;;;;;;2289802;55;20959;-68
2023/11/25 01:12:34;;;;;;;2.10;0.57;;;8.30;70.90;;;;;;2522617;54;21043;-68
2023/11/25 01:15:03;;;;;;;4.75;0.77;;;8.30;70.80;;;;;;2291668;55;21441;-69
2023/11/25 01:17:30;;;;;;;3.55;0.70;;;8.30;70.80;;;;;;2284726;55;20983;-68
2023/11/25 01:19:58;;;;;;;6.25;0.90;;;8.30;70.80;;;;;;2522767;54;21843;-68
2023/11/25 01:22:24;;;;;;;3.72;0.70;;;8.30;70.80;;;;;;2291555;55;21432;-67
2023/11/25 01:24:51;;;;;;;3.40;0.70;;;8.20;70.70;;;;;;2518121;54;21019;-69
2023/11/25 01:27:18;;;;;;;2.60;0.55;;;8.20;70.70;;;;;;2288969;55;21735;-67
2023/11/25 01:29:45;;;;;;;1.40;0.65;;;8.20;70.70;;;;;;2522705;54;21039;-69
2023/11/25 01:32:11;;;;;;;3.90;0.90;;;8.20;70.70;;;;;;2286916;54;21009;-67
2023/11/25 01:34:38;;;;;;;2.83;0.88;;;8.20;70.70;;;;;;2522360;54;20975;-68
2023/11/25 01:37:05;;;;;;;5.10;0.82;;;8.20;70.80;;;;;;2288826;55;20947;-68
2023/11/25 01:39:31;;;;;;;3.95;0.73;;;8.20;70.70;;;;;;2290849;54;21457;-68
2023/11/25 01:41:58;;;;;;;3.03;0.70;;;8.20;70.70;;;;;;2286520;55;21513;-70
2023/11/25 01:44:25;;;;;;;4.82;0.77;;;8.20;70.80;;;;;;2523165;54;21000;-69
2023/11/25 01:46:51;;;;;;;4.62;0.70;;;8.20;70.80;;;;;;2288427;55;21670;-69
2023/11/25 01:49:18;;;;;;;6.55;1.67;;;8.20;70.80;;;;;;2523000;54;21562;-68
2023/11/25 01:51:45;;;;;;;4.93;0.73;;;8.10;70.70;;;;;;2517983;54;21024;-67
2023/11/25 01:54:15;;;;;;;1.73;0.47;;;8.20;70.80;;;;;;2521443;54;21011;-68
2023/11/25 01:56:42;;;;;;;2.75;0.70;;;8.20;70.70;;;;;;2288277;55;21035;-67
2023/11/25 01:59:11;;;;;;;3.20;0.80;;;8.20;70.80;;;;;;2522751;54;21896;-68
2023/11/25 02:01:37;;;;;;;1.50;0.60;;;8.20;70.70;;;;;;2293663;54;20970;-67
2023/11/25 02:04:03;;;;;;;4.85;0.70;;;8.20;70.70;;;;;;2517765;54;21075;-70
2023/11/25 02:06:30;;;;;;;4.03;0.70;;;8.10;70.60;;;;;;2277960;55;20966;-67
2023/11/25 02:08:57;;;;;;;1.65;0.60;;;8.10;70.50;;;;;;2516783;54;21014;-69
2023/11/25 02:11:25;;;;;;;2.92;0.77;;;8.10;70.50;;;;;;2288333;56;20991;-69
2023/11/25 02:13:52;;;;;;;1.95;0.70;;;8.10;70.60;;;;;;2290410;55;21496;-69
2023/11/25 02:16:20;;;;;;;3.00;0.60;;;8.10;70.60;;;;;;2519914;54;21078;-68
2023/11/25 02:18:46;;;;;;;1.58;0.65;;;8.10;70.60;;;;;;2521829;54;20935;-68
2023/11/25 02:21:13;;;;;;;3.90;0.60;;;8.10;70.50;;;;;;2288307;55;20943;-68
2023/11/25 02:23:41;;;;;;;4.05;0.70;;;8.10;70.50;;;;;;2289494;54;21007;-67
2023/11/25 02:26:08;;;;;;;5.22;1.00;;;8.10;70.40;;;;;;2520967;54;21024;-67
2023/11/25 02:28:35;;;;;;;3.20;0.70;;;8.10;70.40;;;;;;2294085;55;21610;-67
2023/11/25 02:31:03;;;;;;;3.60;0.70;;;8.00;70.20;;;;;;2516525;55;20982;-69
2023/11/25 02:33:32;;;;;;;2.30;0.50;;;8.00;70.80;;;;;;2519080;54;21090;-68
2023/11/25 02:35:58;;;;;;;2.78;0.50;;;8.00;70.10;;;;;;2522524;54;21111;-67
2023/11/25 02:38:24;;;;;;;1.40;0.45;;;8.00;70.10;;;;;;2523987;54;20959;-68
2023/11/25 02:40:51;;;;;;;3.37;1.42;;;8.00;70.10;;;;;;2521994;54;20975;-68
2023/11/25 02:43:17;;;;;;;2.12;0.60;;;7.90;70.00;;;;;;2288404;56;20983;-68
2023/11/25 02:45:45;;;;;;;2.12;0.50;;;7.90;70.00;;;;;;2287931;55;21024;-68
2023/11/25 02:48:15;;;;;;;3.50;0.62;;;7.90;70.00;;;;;;2522541;54;21872;-68
2023/11/25 02:50:42;;;;;;;5.25;0.60;;;7.80;69.90;;;;;;2522522;54;21031;-67
2023/11/25 02:53:12;;;;;;;2.20;0.50;;;7.80;69.90;;;;;;2522710;54;21279;-68
2023/11/25 02:55:39;;;;;;;2.75;0.70;;;7.80;69.90;;;;;;2523288;54;22035;-68
2023/11/25 02:58:07;;;;;;;2.85;0.65;;;7.80;69.80;;;;;;2287751;55;20967;-68
2023/11/25 03:00:36;;;;;;;2.95;0.98;;;7.80;69.70;;;;;;2522647;54;20997;-68
2023/11/25 03:03:12;;;;;;;3.08;0.80;;;7.70;69.60;;;;;;2521361;54;21083;-68
2023/11/25 03:05:42;;;;;;;2.33;0.50;;;7.70;69.50;;;;;;2288151;55;21023;-67
2023/11/25 03:08:11;;;;;;;2.70;0.65;;;7.60;69.40;;;;;;2288766;55;21437;-68
2023/11/25 03:10:41;;;;;;;3.90;0.80;;;7.60;69.40;;;;;;2288311;55;20986;-68
2023/11/25 03:13:09;;;;;;;1.70;0.47;;;7.50;69.20;;;;;;2522764;54;21030;-68
2023/11/25 03:15:40;;;;;;;3.95;0.70;;;7.50;69.30;;;;;;2288762;55;20979;-67
2023/11/25 03:18:06;;;;;;;3.42;0.55;;;7.50;69.40;;;;;;2522682;54;20952;-69
2023/11/25 03:20:34;;;;;;;2.87;0.62;;;7.40;69.40;;;;;;2522821;54;20975;-68
2023/11/25 03:23:01;;;;;;;3.90;0.60;;;7.40;69.40;;;;;;2522447;54;20943;-67
2023/11/25 03:25:29;;;;;;;2.15;0.60;;;7.40;69.50;;;;;;2290224;55;21582;-67
2023/11/25 03:27:56;;;;;;;3.40;0.60;;;7.30;69.40;;;;;;2518522;54;21035;-67
2023/11/25 03:30:22;;;;;;;2.42;0.65;;;7.30;69.50;;;;;;2288405;56;21036;-68
2023/11/25 03:32:49;;;;;;;1.98;0.50;;;7.30;69.50;;;;;;2522784;54;20987;-67
2023/11/25 03:35:16;;;;;;;1.55;0.50;;;7.20;69.50;;;;;;2288333;55;20967;-68
2023/11/25 03:37:42;;;;;;;2.33;0.55;;;7.20;69.60;;;;;;2288034;55;21023;-68
2023/11/25 03:40:13;;;;;;;4.95;0.65;;;7.20;69.70;;;;;;2288275;55;20968;-67
2023/11/25 03:42:40;;;;;;;2.60;0.60;;;7.20;69.80;;;;;;2522970;54;20987;-67
2023/11/25 03:45:07;;;;;;;1.30;0.50;;;7.10;69.70;;;;;;2287948;55;20943;-69
2023/11/25 03:47:33;;;;;;;0.95;0.40;;;7.10;69.80;;;;;;2288616;55;21473;-68
2023/11/25 03:49:59;;;;;;;2.35;0.45;;;7.10;69.90;;;;;;2287538;55;20987;-67
2023/11/25 03:52:26;;;;;;;2.67;0.50;;;7.10;70.00;;;;;;2523308;54;20948;-68
2023/11/25 03:54:53;;;;;;;2.65;0.50;;;7.10;70.00;;;;;;2517253;54;21270;-67
2023/11/25 03:57:21;;;;;;;1.62;0.55;;;7.10;70.10;;;;;;2522390;54;21500;-68
2023/11/25 03:59:47;;;;;;;1.40;0.47;;;7.10;70.20;;;;;;2523062;54;22964;-68
2023/11/25 04:02:14;;;;;;;1.83;0.50;;;7.00;70.10;;;;;;2288680;55;20963;-68
2023/11/25 04:04:41;;;;;;;4.10;1.17;;;7.00;70.20;;;;;;2522345;54;21042;-68
2023/11/25 04:07:07;;;;;;;3.17;0.57;;;7.00;70.30;;;;;;2522486;54;21393;-68
2023/11/25 04:09:33;;;;;;;1.50;0.52;;;7.10;70.40;;;;;;2522971;54;20968;-68
2023/11/25 04:12:00;;;;;;;1.73;0.60;;;7.00;70.40;;;;;;2289936;55;20950;-67
2023/11/25 04:14:26;;;;;;;4.30;0.68;;;7.00;70.50;;;;;;2287028;54;21841;-68
2023/11/25 04:16:53;;;;;;;4.65;0.90;;;7.00;70.60;;;;;;2523196;54;20960;-68
2023/11/25 04:19:21;;;;;;;3.45;0.70;;;7.00;70.60;;;;;;2289484;55;21185;-67
2023/11/25 04:21:50;;;;;;;1.60;0.50;;;7.00;70.60;;;;;;2288240;54;21952;-68
2023/11/25 04:24:19;;;;;;;3.97;0.68;;;7.00;70.70;;;;;;2290002;55;21343;-68
2023/11/25 04:26:46;;;;;;;3.17;0.70;;;7.00;70.70;;;;;;2519669;54;20983;-68
2023/11/25 04:29:13;;;;;;;3.10;0.68;;;7.00;70.70;;;;;;2288426;55;21495;-66
2023/11/25 04:31:42;;;;;;;1.95;0.60;;;7.00;70.70;;;;;;2288963;55;20968;-68
2023/11/25 04:34:09;;;;;;;1.92;0.70;;;7.00;70.70;;;;;;2520569;54;20998;-67
2023/11/25 04:36:36;;;;;;;3.37;0.60;;;7.00;70.70;;;;;;2288247;55;21115;-67
2023/11/25 04:39:02;;;;;;;2.17;0.80;;;7.00;70.70;;;;;;2283875;54;20954;-68
2023/11/25 04:41:29;;;;;;;3.37;0.70;;;7.00;70.80;;;;;;2519190;54;21024;-68
2023/11/25 04:43:58;;;;;;;3.30;0.70;;;7.00;70.80;;;;;;2286104;55;21327;-68
2023/11/25 04:46:26;;;;;;;2.15;0.60;;;7.00;70.70;;;;;;2288307;55;20955;-67
2023/11/25 04:48:52;;;;;;;1.52;0.50;;;7.00;70.70;;;;;;2523012;54;21781;-68
2023/11/25 04:51:22;;;;;;;3.28;0.60;;;7.00;70.70;;;;;;2523106;54;21624;-66
2023/11/25 04:53:49;;;;;;;4.37;0.65;;;7.00;70.70;;;;;;2523096;54;21520;-68
2023/11/25 04:56:16;;;;;;;1.60;0.60;;;7.00;70.70;;;;;;2523222;54;20996;-67
2023/11/25 04:58:42;;;;;;;3.00;0.70;;;7.00;70.70;;;;;;2523070;54;20979;-67
2023/11/25 05:01:09;;;;;;;2.75;1.00;;;7.00;70.80;;;;;;2517680;54;21720;-67
2023/11/25 05:03:37;;;;;;;2.65;0.65;;;7.00;70.90;;;;;;2287320;55;20963;-68
2023/11/25 05:06:08;;;;;;;3.35;0.60;;;7.00;70.90;;;;;;2287360;55;20951;-68
2023/11/25 05:08:34;;;;;;;3.03;0.50;;;7.00;71.00;;;;;;2491693;54;21031;-67
2023/11/25 05:11:00;;;;;;;3.60;0.80;;;7.00;71.00;;;;;;2523015;54;21005;-67
2023/11/25 05:13:27;;;;;;;3.47;0.80;;;7.00;71.00;;;;;;2522953;54;20975;-68
2023/11/25 05:15:54;;;;;;;1.85;0.70;;;7.00;71.00;;;;;;2288330;55;20987;-67
2023/11/25 05:18:21;;;;;;;2.15;0.73;;;7.00;71.10;;;;;;2522189;54;21011;-68
2023/11/25 05:20:47;;;;;;;2.42;0.80;;;7.00;71.10;;;;;;2522766;54;21236;-68
2023/11/25 05:23:14;;;;;;;3.58;0.85;;;7.00;71.10;;;;;;2522981;54;22156;-67
2023/11/25 05:25:40;;;;;;;5.28;0.80;;;7.10;71.20;;;;;;2523459;54;20944;-68
2023/11/25 05:28:09;;;;;;;2.53;0.60;;;7.10;71.20;;;;;;2522892;54;21504;-67
2023/11/25 05:30:36;;;;;;;2.47;0.50;;;7.10;71.10;;;;;;2288470;55;21039;-67
2023/11/25 05:33:02;;;;;;;3.42;0.82;;;7.10;71.10;;;;;;2518614;54;21432;-69
2023/11/25 05:35:29;;;;;;;2.05;0.60;;;7.10;71.00;;;;;;2521098;54;21881;-68
2023/11/25 05:37:55;;;;;;;2.25;0.70;;;7.10;71.00;;;;;;2522769;54;21035;-67
2023/11/25 05:40:23;;;;;;;1.02;0.47;;;7.10;70.80;;;;;;2523274;54;20975;-67
2023/11/25 05:42:53;;;;;;;2.85;0.70;;;7.10;70.80;;;;;;2523371;54;21394;-68
2023/11/25 05:45:23;;;;;;;3.22;0.70;;;7.10;70.70;;;;;;2287847;55;21817;-67
2023/11/25 05:47:51;;;;;;;1.37;0.60;;;7.10;70.50;;;;;;2523025;54;21023;-68
2023/11/25 05:50:20;;;;;;;3.10;1.12;;;7.10;70.40;;;;;;2288250;55;21018;-67
2023/11/25 05:52:47;;;;;;;1.87;0.65;;;7.10;70.40;;;;;;2523049;54;21548;-68
2023/11/25 05:55:19;;;;;;;1.52;0.50;;;7.00;70.30;;;;;;2522737;54;21303;-68
2023/11/25 05:57:45;;;;;;;5.05;0.90;;;7.00;70.20;;;;;;2287614;55;21035;-68
2023/11/25 06:00:12;;;;;;;2.22;0.55;;;7.00;70.00;;;;;;2522646;54;20971;-68
2023/11/25 06:02:39;;;;;;;4.57;1.08;;;7.00;70.00;;;;;;2287866;55;21444;-68
2023/11/25 06:05:06;;;;;;;3.60;1.30;;;6.90;69.80;;;;;;2522496;54;20943;-68
2023/11/25 06:07:33;;;;;;;2.45;1.10;;;6.90;69.80;;;;;;2287656;55;20964;-68
2023/11/25 06:09:59;;;;;;;3.42;1.17;;;6.90;69.70;;;;;;2287569;55;21031;-68
2023/11/25 06:12:26;;;;;;;3.90;1.20;;;6.80;69.40;;;;;;2287475;55;20998;-67
2023/11/25 06:14:55;;;;;;;5.85;1.48;;;6.80;69.30;;;;;;2519842;54;21042;-68
2023/11/25 06:17:23;;;;;;;6.20;1.35;;;6.80;69.40;;;;;;2523349;54;20991;-69
2023/11/25 06:19:52;;;;;;;3.80;0.80;;;6.70;69.20;;;;;;2517886;54;20938;-68
2023/11/25 06:22:19;;;;;;;3.03;0.90;;;6.70;69.20;;;;;;2521670;54;20987;-68
2023/11/25 06:24:46;;;;;;;4.85;1.12;;;6.60;69.20;;;;;;2518882;54;21001;-68
2023/11/25 06:27:13;;;;;;;2.37;0.77;;;6.60;69.30;;;;;;2283475;55;21011;-67
2023/11/25 06:29:39;;;;;;;2.97;0.85;;;6.50;69.20;;;;;;2288465;55;21422;-67
2023/11/25 06:32:06;;;;;;;2.25;0.88;;;6.50;69.20;;;;;;2287819;55;20967;-68
2023/11/25 06:34:34;;;;;;;2.50;1.08;;;6.40;69.20;;;;;;2521200;54;21054;-68
2023/11/25 06:37:02;;;;;;;3.47;0.98;;;6.40;69.20;;;;;;2287698;54;21031;-66
2023/11/25 06:39:31;;;;;;;2.60;0.82;;;6.40;69.20;;;;;;2288114;55;21224;-67
2023/11/25 06:42:07;;;;;;;3.65;0.90;;;6.30;69.10;;;;;;2522061;54;20999;-66
2023/11/25 06:44:33;;;;;;;3.72;0.70;;;6.20;68.90;;;;;;2519143;54;20947;-68
2023/11/25 06:47:00;;;;;;;2.70;0.90;;;6.20;68.80;;;;;;2287382;54;21484;-68
2023/11/25 06:49:26;;;;;;;3.40;1.00;;;6.10;68.80;;;;;;2522675;54;21029;-68
2023/11/25 06:51:53;;;;;;;2.45;0.70;;;6.10;68.90;;;;;;2523103;54;20963;-67
2023/11/25 06:54:19;;;;;;;2.90;0.77;;;6.10;69.10;;;;;;2522614;54;21048;-68
2023/11/25 06:56:47;;;;;;;2.83;0.95;;;6.00;69.00;;;;;;2288447;55;20971;-69
2023/11/25 06:59:14;;;;;;;2.00;0.75;;;6.00;69.00;;;;;;2287782;55;21428;-68
2023/11/25 07:01:40;;;;;;;2.37;0.90;;;5.90;68.90;;;;;;2289964;55;20951;-67
2023/11/25 07:04:07;;;;;;;2.40;1.00;;;5.90;68.90;;;;;;2289710;54;21026;-67
2023/11/25 07:06:35;;;;;;;4.47;1.10;;;5.80;68.80;;;;;;2282570;55;21044;-67
2023/11/25 07:09:03;;;;;;;5.07;1.40;;;5.80;69.00;;;;;;2521972;54;21841;-67
2023/11/25 07:11:34;;;;;;;4.35;1.35;;;5.80;69.20;;;;;;2287419;55;21024;-66
2023/11/25 07:14:00;;;;;;;5.43;1.05;;;5.70;69.30;;;;;;2516648;54;21570;-68
2023/11/25 07:16:29;;;;;;;4.75;1.45;;;5.70;69.40;;;;;;2522343;54;21027;-67
2023/11/25 07:18:55;;;;;;;3.60;1.33;;;5.70;69.50;;;;;;2288957;55;21529;-68
2023/11/25 07:21:24;;;;;;;3.80;1.25;;;5.70;69.70;;;;;;2519417;54;20955;-68
2023/11/25 07:23:51;;;;;;;5.43;2.00;;;5.60;69.60;;;;;;2522218;54;21345;-67
2023/11/25 07:26:17;;;;;;;7.53;2.10;;;5.60;69.70;;;;;;2286523;55;21015;-67
2023/11/25 07:28:44;;;;;;;4.97;2.22;;;5.60;69.80;;;;;;2288071;55;20987;-68
2023/11/25 07:31:12;;;;;;;6.78;2.25;;;5.60;70.00;;;;;;2522568;54;21007;-67
2023/11/25 07:33:38;;;;;;;3.78;1.67;;;5.60;70.20;;;;;;2522088;54;20951;-68
2023/11/25 07:36:06;;;;;;;5.57;2.10;;;5.60;70.30;;;;;;2289987;55;20986;-68
2023/11/25 07:38:32;;;;;;;7.45;2.37;;;5.60;70.50;;;;;;2519047;54;21793;-67
2023/11/25 07:40:59;;;;;;;6.55;3.28;;;5.60;70.60;;;;;;2287958;55;21448;-67
2023/11/25 07:43:26;;;;;;;5.12;2.25;;;5.60;70.70;;;;;;2287762;55;21482;-67
2023/11/25 07:45:52;;;;;;;5.97;2.60;;;5.60;70.80;;;;;;2522528;54;21003;-67
2023/11/25 07:48:19;;;;;;;10.70;4.12;;;5.70;71.00;;;;;;2286824;55;20984;-68
2023/11/25 07:50:48;;;;;;;7.07;3.25;;;5.70;71.00;;;;;;2521461;54;21049;-68
2023/11/25 07:53:14;;;;;;;6.80;2.85;;;5.70;71.10;;;;;;2521851;54;21011;-67
2023/11/25 07:55:43;;;;;;;6.18;3.12;;;5.70;71.10;;;;;;2287940;55;21015;-66
2023/11/25 07:58:09;;;;;;;5.32;2.53;;;5.70;71.20;;;;;;2287426;54;21037;-67
2023/11/25 08:00:36;;;;;;;8.93;3.00;;;5.80;71.30;;;;;;2287231;55;21023;-67
2023/11/25 08:03:02;;;;;;;6.53;2.60;;;5.80;71.30;;;;;;2521835;54;21059;-66
2023/11/25 08:05:29;;;;;;;6.32;2.90;;;5.80;71.40;;;;;;2287974;55;20948;-67
2023/11/25 08:07:55;;;;;;;7.90;3.75;;;5.90;71.50;;;;;;2521765;54;20982;-68
2023/11/25 08:10:26;;;;;;;9.68;4.65;;;5.90;71.70;;;;;;2517613;54;20999;-67
2023/11/25 08:12:53;;;;;;;11.45;5.45;;;5.90;71.80;;;;;;2287330;55;21027;-69
2023/11/25 08:15:19;;;;;;;10.68;5.07;;;6.00;71.90;;;;;;2289906;55;22029;-68
2023/11/25 08:17:46;;;;;;;10.88;6.18;;;6.00;72.00;;;;;;2516275;54;21041;-67
2023/11/25 08:20:12;;;;;;;13.02;6.07;;;6.10;72.10;;;;;;2284001;54;21003;-67
2023/11/25 08:22:38;;;;;;;12.77;6.30;;;6.10;72.10;;;;;;2521369;54;20956;-67
2023/11/25 08:25:07;;;;;;;23.65;11.32;;;6.10;72.20;;;;;;2291359;54;21443;-68
2023/11/25 08:27:34;;;;;;;23.70;10.23;;;6.20;72.40;;;;;;2517216;54;21039;-68
2023/11/25 08:30:00;;;;;;;14.27;7.05;;;6.20;72.50;;;;;;2522263;54;21574;-68
2023/11/25 08:32:27;;;;;;;10.85;5.35;;;6.30;72.70;;;;;;2522902;54;20972;-68
2023/11/25 08:34:55;;;;;;;10.52;4.30;;;6.40;72.90;;;;;;2521930;54;21059;-68
2023/11/25 08:37:27;;;;;;;10.77;3.20;;;6.40;72.90;;;;;;2289135;55;21062;-69
2023/11/25 08:39:56;;;;;;;5.62;2.55;;;6.50;73.10;;;;;;2519974;54;21370;-68
2023/11/25 08:42:24;;;;;;;5.50;2.03;;;6.50;73.10;;;;;;2288975;55;21497;-67
2023/11/25 08:44:52;;;;;;;5.20;2.28;;;6.60;73.30;;;;;;2288700;55;21091;-67
2023/11/25 08:47:18;;;;;;;5.53;2.30;;;6.70;73.40;;;;;;2289998;55;21001;-69
2023/11/25 08:49:49;;;;;;;7.15;2.20;;;6.70;73.40;;;;;;2284877;55;20992;-68
2023/11/25 08:52:15;;;;;;;4.70;1.80;;;6.80;73.50;;;;;;2522335;54;20987;-68
2023/11/25 08:54:42;;;;;;;3.78;1.50;;;6.80;73.50;;;;;;2521881;54;21055;-67
2023/11/25 08:57:08;;;;;;;7.50;1.80;;;6.90;73.50;;;;;;2522672;54;21228;-69
2023/11/25 08:59:35;;;;;;;7.55;1.73;;;6.90;73.50;;;;;;2520754;54;21785;-69
2023/11/25 09:02:04;;;;;;;6.05;1.55;;;7.00;73.50;;;;;;2288671;55;20979;-67
2023/11/25 09:04:35;;;;;;;6.75;1.98;;;7.10;73.60;;;;;;2521708;54;21016;-67
2023/11/25 09:07:07;;;;;;;5.22;1.58;;;7.20;73.60;;;;;;2522521;54;21029;-68
2023/11/25 09:09:33;;;;;;;7.37;1.80;;;7.20;73.60;;;;;;2522272;54;21012;-68
2023/11/25 09:12:01;;;;;;;6.32;1.42;;;7.30;73.60;;;;;;2286657;55;20955;-69
2023/11/25 09:14:28;;;;;;;4.53;1.75;;;7.30;73.60;;;;;;2522055;54;20946;-69
2023/11/25 09:16:55;;;;;;;3.72;1.08;;;7.40;73.70;;;;;;2518599;54;21053;-68
2023/11/25 09:19:23;;;;;;;4.18;1.35;;;7.50;73.80;;;;;;2285846;54;21030;-68
2023/11/25 09:21:49;;;;;;;4.10;1.27;;;7.50;73.80;;;;;;2522430;54;21092;-67
2023/11/25 09:24:17;;;;;;;4.95;1.33;;;7.60;74.00;;;;;;2522621;54;21797;-68
2023/11/25 09:26:44;;;;;;;3.65;1.70;;;7.60;74.00;;;;;;2285637;55;21006;-68
2023/11/25 09:29:10;;;;;;;5.03;1.50;;;7.70;74.20;;;;;;2522886;54;21047;-68
2023/11/25 09:31:39;;;;;;;4.93;1.33;;;7.80;74.30;;;;;;2290812;55;20979;-69
2023/11/25 09:34:09;;;;;;;6.90;1.73;;;7.80;74.30;;;;;;2522693;54;20932;-67
2023/11/25 09:36:35;;;;;;;3.33;1.20;;;7.90;74.30;;;;;;2521969;54;20971;-68
2023/11/25 09:39:03;;;;;;;6.75;1.50;;;8.00;74.30;;;;;;2523015;54;20990;-68
2023/11/25 09:41:31;;;;;;;6.10;1.50;;;8.10;74.50;;;;;;2522178;54;21027;-68
2023/11/25 09:43:58;;;;;;;7.47;1.17;;;8.10;74.30;;;;;;2522499;54;20951;-69
2023/11/25 09:46:25;;;;;;;4.00;1.48;;;8.20;74.40;;;;;;2522125;54;21817;-68
2023/11/25 09:48:54;;;;;;;2.55;1.05;;;8.30;74.30;;;;;;2284493;55;21015;-68
2023/11/25 09:51:50;;;;;;;4.18;1.30;;;8.40;74.20;;;;;;2522464;54;21007;-68
2023/11/25 09:54:24;;;;;;;5.22;1.20;;;8.50;73.60;;;;;;2522077;54;20988;-68
2023/11/25 09:56:53;;;;;;;3.85;1.12;;;8.60;74.00;;;;;;2517772;54;20998;-68
2023/11/25 09:59:50;;;;;;;;;;;;;;;;;;;;;
2023/11/25 10:02:56;;;;;;;6.05;1.70;;;8.70;73.50;;;;;;2286493;54;20951;-69
2023/11/25 10:05:43;;;;;;;6.43;1.23;;;8.80;73.40;;;;;;2521388;54;20965;-69
2023/11/25 10:08:20;;;;;;;3.80;1.75;;;8.80;74.00;;;;;;2292468;55;20997;-71
2023/11/25 10:14:18;;;;;;;3.75;1.25;;;8.90;73.90;;;;;;2504936;55;21065;-68
2023/11/25 10:32:34;;;;;;;7.18;1.60;;;9.10;73.30;;;;;;2516386;54;21098;-69
2023/11/25 10:35:47;;;;;;;4.28;1.70;;;9.40;73.50;;;;;;2521268;54;21032;-71
2023/11/25 10:38:35;;;;;;;7.85;2.37;;;9.40;72.70;;;;;;2519485;54;20972;-69
2023/11/25 10:41:17;;;;;;;8.55;2.90;;;9.50;73.50;;;;;;2291162;55;21027;-67
2023/11/25 10:44:43;;;;;;;6.43;2.72;;;9.50;73.00;;;;;;2515219;54;20995;-69
2023/11/25 10:47:51;;;;;;;7.43;2.47;;;9.60;73.20;;;;;;2513669;54;21118;-67
2023/11/25 10:50:42;;;;;;;4.40;1.40;;;9.60;72.80;;;;;;2514354;54;20998;-69
2023/11/25 10:53:18;;;;;;;4.85;1.67;;;9.70;73.60;;;;;;2515624;54;21101;-71
2023/11/25 10:59:26;;;;;;;11.98;4.20;;;9.70;73.40;;;;;;2519656;54;20971;-69
2023/11/25 11:01:55;;;;;;;8.15;3.08;;;9.70;73.00;;;;;;2521982;54;21067;-70
2023/11/25 11:04:36;;;;;;;5.72;1.75;;;9.90;73.50;;;;;;2288270;55;20974;-68
2023/11/25 11:07:06;;;;;;;5.82;1.67;;;9.90;72.90;;;;;;2520250;54;21588;-68
2023/11/25 11:09:34;;;;;;;7.55;1.73;;;9.90;73.30;;;;;;2489885;55;20967;-68
2023/11/25 11:12:52;;;;;;;6.93;1.60;;;10.00;72.20;;;;;;2516988;54;20974;-69
2023/11/25 11:15:46;;;;;;;5.28;1.50;;;10.00;70.50;;;;;;2289436;55;21910;-69
2023/11/25 11:18:35;;;;;;;3.83;1.40;;;10.10;70.90;;;;;;2518375;54;21070;-69
2023/11/25 11:21:03;;;;;;;4.62;1.20;;;10.10;70.80;;;;;;2522916;54;20992;-69
2023/11/25 11:23:36;;;;;;;4.57;1.42;;;10.10;71.50;;;;;;2521724;54;21384;-68
2023/11/25 11:26:29;;;;;;;4.68;1.00;;;10.20;71.30;;;;;;2288361;55;21575;-70
2023/11/25 11:30:23;;;;;;;3.70;1.08;;;10.20;70.00;;;;;;2522435;54;20991;-71
2023/11/25 11:32:49;;;;;;;5.00;1.23;;;10.20;69.30;;;;;;2288290;55;21352;-68
2023/11/25 11:35:20;;;;;;;4.37;1.05;;;10.20;70.50;;;;;;2522008;54;21058;-68
2023/11/25 11:37:48;;;;;;;4.03;1.00;;;10.20;70.00;;;;;;2522166;54;20971;-70
2023/11/25 11:40:14;;;;;;;6.40;1.83;;;10.10;69.90;;;;;;2516898;54;21419;-72
2023/11/25 11:42:42;;;;;;;4.90;1.62;;;10.10;69.70;;;;;;2521833;54;21031;-71
2023/11/25 11:45:24;;;;;;;6.32;1.48;;;10.10;69.40;;;;;;2521964;54;21027;-70
2023/11/25 11:48:13;;;;;;;5.97;1.75;;;10.00;69.20;;;;;;2522696;54;21461;-68
2023/11/25 11:51:02;;;;;;;3.62;1.40;;;10.00;69.20;;;;;;2520757;54;21078;-68
2023/11/25 11:53:36;;;;;;;6.93;3.35;;;10.00;69.30;;;;;;2491941;54;20975;-70
2023/11/25 11:56:04;;;;;;;9.93;3.30;;;10.00;69.50;;;;;;2522294;54;20963;-69
2023/11/25 11:59:03;;;;;;;4.95;2.22;;;9.90;70.40;;;;;;2288587;55;21003;-70
2023/11/25 12:02:10;;;;;;;7.68;2.65;;;9.90;70.20;;;;;;2522059;54;20999;-70
2023/11/25 12:04:42;;;;;;;5.50;1.90;;;9.80;70.40;;;;;;2521881;54;20976;-69
2023/11/25 12:07:09;;;;;;;4.35;1.55;;;9.80;70.50;;;;;;2288121;55;20988;-67
2023/11/25 12:10:10;;;;;;;6.37;1.70;;;9.80;70.60;;;;;;2511226;54;20971;-69
2023/11/25 12:12:49;;;;;;;5.82;1.77;;;9.80;70.10;;;;;;2285465;55;21247;-69
2023/11/25 12:19:03;;;;;;;3.75;1.40;;;9.70;69.70;;;;;;2516008;54;20969;-68
2023/11/25 12:21:40;;;;;;;6.90;1.60;;;9.70;70.50;;;;;;2521317;54;21007;-70
2023/11/25 12:24:46;;;;;;;4.87;1.10;;;9.70;70.50;;;;;;2290736;55;21050;-71
2023/11/25 12:27:20;;;;;;;7.25;1.30;;;9.70;70.50;;;;;;2514985;54;21384;-67
2023/11/25 12:29:49;;;;;;;5.28;1.30;;;9.70;70.50;;;;;;2287664;54;21067;-68
2023/11/25 12:32:36;;;;;;;6.82;1.73;;;9.70;70.40;;;;;;2517691;54;21035;-69
2023/11/25 12:35:13;;;;;;;4.35;1.52;;;9.70;70.60;;;;;;2267129;55;20995;-68
2023/11/25 12:37:50;;;;;;;8.80;1.60;;;9.70;70.60;;;;;;2289601;55;20984;-68
2023/11/25 12:40:36;;;;;;;8.60;2.15;;;9.70;70.40;;;;;;2520183;54;21542;-68
2023/11/25 12:43:23;;;;;;;7.12;2.33;;;9.70;70.70;;;;;;2489367;55;20943;-67
2023/11/25 12:46:18;;;;;;;8.63;2.65;;;9.60;70.30;;;;;;2515689;54;21010;-69
2023/11/25 12:49:21;;;;;;;9.45;2.90;;;9.70;70.40;;;;;;2285189;55;21016;-67
2023/11/25 12:52:46;;;;;;;;;;;;;;;;;;;;;
2023/11/25 12:55:52;;;;;;;8.13;2.20;;;9.60;70.70;;;;;;2521523;54;21891;-67
2023/11/25 12:58:43;;;;;;;7.15;2.22;;;9.60;70.00;;;;;;2517514;54;21409;-69
2023/11/25 13:01:10;;;;;;;6.10;2.40;;;9.60;70.40;;;;;;2521233;54;20955;-70
2023/11/25 13:03:38;;;;;;;10.70;2.53;;;9.60;70.40;;;;;;2522426;54;21015;-69
2023/11/25 13:06:10;;;;;;;9.85;2.67;;;9.60;70.50;;;;;;2287958;55;20999;-69
2023/11/25 13:08:39;;;;;;;5.62;1.73;;;9.60;70.40;;;;;;2519152;54;21860;-68
2023/11/25 13:11:10;;;;;;;7.03;1.95;;;9.60;70.60;;;;;;2515635;54;21017;-69
2023/11/25 13:13:40;;;;;;;5.00;1.55;;;9.50;70.50;;;;;;2518396;54;21015;-69
2023/11/25 13:16:10;;;;;;;6.93;1.80;;;9.60;70.50;;;;;;2522587;54;22170;-67
2023/11/25 13:18:36;;;;;;;5.82;1.65;;;9.50;70.50;;;;;;2287441;55;20976;-69
2023/11/25 13:21:06;;;;;;;6.63;1.80;;;9.60;70.60;;;;;;2395360;54;1790263;-70
2023/11/25 13:23:33;;;;;;;8.38;2.03;;;9.50;70.50;;;;;;2521753;54;20995;-68
2023/11/25 13:25:59;;;;;;;5.85;2.03;;;9.50;70.60;;;;;;2521929;54;20951;-68
2023/11/25 13:28:26;;;;;;;8.25;3.05;;;9.50;70.70;;;;;;2521911;54;21023;-70
2023/11/25 13:30:53;;;;;;;7.95;3.20;;;9.50;70.70;;;;;;2521694;54;20975;-69
2023/11/25 13:33:20;;;;;;;8.55;4.35;;;9.40;70.50;;;;;;2522176;54;21341;-71
2023/11/25 13:35:46;;;;;;;8.80;3.65;;;9.50;70.70;;;;;;2290842;55;20938;-68
2023/11/25 13:38:15;;;;;;;7.95;2.90;;;9.40;70.60;;;;;;2519069;54;20983;-70
2023/11/25 13:40:42;;;;;;;6.25;2.70;;;9.40;70.70;;;;;;2285129;55;20958;-69
2023/11/25 13:43:13;;;;;;;6.60;2.25;;;9.40;70.80;;;;;;2521202;54;21066;-70